Time;durP1;ratioP1;P1;durP2;ratioP2;P2;SDS_P1;SDS_P2;PMS_P1;PMS_P2;Temp;Humidity;BMP_temperature;BMP_pressure;BME280_temperature;BME280_humidity;BME280_pressure;Samples;Min_cycle;Max_cycle;Signal;HPM_P1;HPM_P2
2022/10/14 00:01:51;;;;;;;;;;;;;;;11.70;100.00;101232.56;5007065;28;19921;-80
2022/10/14 00:04:16;;;;;;;;;;;;;;;11.71;100.00;101233.47;5009174;28;19921;-78
2022/10/14 00:06:42;;;;;;;;;;;;;;;11.67;100.00;101229.03;5012615;28;19956;-79
2022/10/14 00:09:08;;;;;;;;;;;;;;;11.52;100.00;101225.41;5004752;28;20395;-80
2022/10/14 00:11:34;;;;;;;;;;;;;;;11.39;100.00;101227.03;5007510;28;19960;-79
2022/10/14 00:14:03;;;;;;;;;;;;;;;11.34;100.00;101225.25;4996817;28;19921;-79
2022/10/14 00:16:33;;;;;;;;;;;;;;;11.37;100.00;101225.25;5014032;28;19964;-80
2022/10/14 00:18:59;;;;;;;;;;;;;;;11.27;100.00;101226.03;5007312;28;19929;-79
2022/10/14 00:21:25;;;;;;;;;;;;;;;11.15;100.00;101224.16;5011502;28;19953;-78
2022/10/14 00:23:50;;;;;;;;;;;;;;;11.22;100.00;101226.00;5009700;28;19956;-77
2022/10/14 00:26:20;;;;;;;;;;;;;;;11.15;100.00;101219.78;5010628;28;19953;-78
2022/10/14 00:28:46;;;;;;;;;;;;;;;11.10;100.00;101218.88;5010317;28;19921;-78
2022/10/14 00:31:11;;;;;;;;;;;;;;;11.12;100.00;101214.50;5010829;28;20054;-76
2022/10/14 00:33:36;;;;;;;;;;;;;;;11.10;100.00;101215.38;5009036;28;19928;-75
2022/10/14 00:36:03;;;;;;;;;;;;;;;11.02;100.00;101204.75;4995209;28;19918;-74
2022/10/14 00:38:28;;;;;;;;;;;;;;;10.99;100.00;101215.25;4985452;28;19929;-76
2022/10/14 00:40:54;;;;;;;;;;;;;;;11.04;100.00;101207.41;5009516;28;19948;-74
2022/10/14 00:43:20;;;;;;;;;;;;;;;11.06;100.00;101197.81;4992737;28;20258;-76
2022/10/14 00:45:46;;;;;;;;;;;;;;;10.94;100.00;101199.44;5009497;28;19922;-77
2022/10/14 00:48:12;;;;;;;;;;;;;;;10.90;100.00;101202.88;5010752;28;20762;-76
2022/10/14 00:50:40;;;;;;;;;;;;;;;10.93;100.00;101204.66;5020188;28;20008;-76
2022/10/14 00:53:05;;;;;;;;;;;;;;;10.97;100.00;101202.06;5009672;28;19921;-76
2022/10/14 00:55:31;;;;;;;;;;;;;;;10.83;100.00;101202.78;5015714;28;19928;-77
2022/10/14 00:57:56;;;;;;;;;;;;;;;10.91;100.00;101202.03;5001543;28;19929;-76
2022/10/14 01:00:21;;;;;;;;;;;;;;;10.76;100.00;101207.09;4990474;28;20653;-76
2022/10/14 01:02:47;;;;;;;;;;;;;;;10.78;100.00;101198.38;5002728;28;19924;-76
2022/10/14 01:05:13;;;;;;;;;;;;;;;10.77;100.00;101198.38;5006035;28;19940;-77
2022/10/14 01:07:58;;;;;;;;;;;;;;;10.75;100.00;101195.72;5001600;28;19960;-76
2022/10/14 01:10:38;;;;;;;;;;;;;;;10.73;100.00;101192.19;4997187;28;19918;-77
2022/10/14 01:13:13;;;;;;;;;;;;;;;10.68;100.00;101187.75;4997808;28;20333;-75
2022/10/14 01:15:41;;;;;;;;;;;;;;;10.92;100.00;101188.03;4994338;28;20318;-79
2022/10/14 01:18:09;;;;;;;;;;;;;;;10.94;100.00;101201.19;5003263;28;19921;-77
2022/10/14 01:20:53;;;;;;;;;;;;;;;11.01;100.00;101196.88;4988594;28;20281;-77
2022/10/14 01:23:37;;;;;;;;;;;;;;;10.86;100.00;101195.81;5002102;28;20332;-77
2022/10/14 01:26:19;;;;;;;;;;;;;;;10.85;100.00;101191.44;5027111;28;20480;-77
2022/10/14 01:29:00;;;;;;;;;;;;;;;10.83;100.00;101193.16;5004217;28;20001;-77
2022/10/14 01:31:29;;;;;;;;;;;;;;;10.88;100.00;101190.59;4999004;28;19921;-76
2022/10/14 01:33:57;;;;;;;;;;;;;;;10.78;100.00;101192.25;5008544;28;20324;-78
2022/10/14 01:36:32;;;;;;;;;;;;;;;10.91;100.00;101196.78;5008250;28;19917;-77
2022/10/14 01:39:06;;;;;;;;;;;;;;;10.93;100.00;101194.16;5009825;28;19917;-76
2022/10/14 01:41:35;;;;;;;;;;;;;;;10.77;100.00;101187.88;4997304;28;19953;-77
2022/10/14 01:44:23;;;;;;;;;;;;;;;10.76;100.00;101184.34;4992075;28;19921;-75
2022/10/14 01:46:51;;;;;;;;;;;;;;;10.70;100.00;101184.28;4976715;28;19922;-76
2022/10/14 01:49:24;;;;;;;;;;;;;;;10.63;100.00;101182.44;4971536;28;19918;-75
2022/10/14 01:51:51;;;;;;;;;;;;;;;10.57;100.00;101183.22;4985317;28;20586;-76
2022/10/14 01:54:22;;;;;;;;;;;;;;;10.55;100.00;101179.72;4987117;28;20009;-72
2022/10/14 01:56:48;;;;;;;;;;;;;;;10.55;100.00;101179.72;4971551;28;19919;-76
2022/10/14 01:59:15;;;;;;;;;;;;;;;10.52;100.00;101186.69;4985931;28;19925;-77
2022/10/14 02:01:40;;;;;;;;;;;;;;;10.63;100.00;101187.69;4975987;28;19977;-76
2022/10/14 02:04:16;;;;;;;;;;;;;;;10.59;100.00;101177.16;4981410;28;19922;-76
2022/10/14 02:06:44;;;;;;;;;;;;;;;10.50;100.00;101183.16;4976007;28;19971;-75
2022/10/14 02:09:10;;;;;;;;;;;;;;;10.47;100.00;101184.00;4970355;28;20260;-77
2022/10/14 02:11:41;;;;;;;;;;;;;;;10.48;100.00;101187.50;4975365;28;20358;-77
2022/10/14 02:14:32;;;;;;;;;;;;;;;10.52;100.00;101184.06;4976573;28;19914;-76
2022/10/14 02:17:03;;;;;;;;;;;;;;;10.57;100.00;101188.47;4967076;28;19922;-77
2022/10/14 02:19:44;;;;;;;;;;;;;;;10.48;100.00;101192.75;4967779;28;19970;-78
2022/10/14 02:22:10;;;;;;;;;;;;;;;10.51;100.00;101191.06;4978727;28;19976;-78
2022/10/14 02:24:43;;;;;;;;;;;;;;;10.46;100.00;101190.09;4983256;28;19934;-79
2022/10/14 02:27:10;;;;;;;;;;;;;;;10.47;100.00;101188.38;4969641;28;20013;-75
2022/10/14 02:29:37;;;;;;;;;;;;;;;10.49;100.00;101190.16;4969124;28;19918;-75
2022/10/14 02:32:05;;;;;;;;;;;;;;;10.55;100.00;101199.81;4986984;28;19925;-77
2022/10/14 02:34:30;;;;;;;;;;;;;;;10.53;100.00;101199.78;4983383;28;19948;-76
2022/10/14 02:36:56;;;;;;;;;;;;;;;10.55;100.00;101191.94;4956306;28;19961;-76
2022/10/14 02:39:29;;;;;;;;;;;;;;;10.52;100.00;101194.56;4982405;28;20376;-77
2022/10/14 02:41:54;;;;;;;;;;;;;;;10.59;100.00;101193.75;4972428;28;19918;-77
2022/10/14 02:44:20;;;;;;;;;;;;;;;10.50;100.00;101197.16;4953379;28;19914;-76
2022/10/14 02:46:45;;;;;;;;;;;;;;;10.53;100.00;101194.53;5003150;28;19921;-75
2022/10/14 02:49:10;;;;;;;;;;;;;;;10.58;100.00;101197.22;4990629;28;20663;-74
2022/10/14 02:51:35;;;;;;;;;;;;;;;10.55;100.00;101194.56;5000940;28;19929;-75
2022/10/14 02:54:01;;;;;;;;;;;;;;;10.60;100.00;101197.25;4989231;28;20409;-78
2022/10/14 02:56:26;;;;;;;;;;;;;;;10.60;100.00;101192.00;5001152;28;19928;-75
2022/10/14 02:58:52;;;;;;;;;;;;;;;10.60;100.00;101194.63;5006807;28;19927;-76
2022/10/14 03:01:17;;;;;;;;;;;;;;;10.53;100.00;101184.06;4996060;28;19917;-74
2022/10/14 03:03:42;;;;;;;;;;;;;;;10.63;100.00;101187.69;4989630;28;19917;-75
2022/10/14 03:06:08;;;;;;;;;;;;;;;10.63;100.00;101189.41;5008163;28;20323;-79
2022/10/14 03:08:33;;;;;;;;;;;;;;;10.60;100.00;101187.63;5006155;28;19922;-79
2022/10/14 03:10:59;;;;;;;;;;;;;;;10.56;100.00;101180.63;5005312;28;20335;-77
2022/10/14 03:13:24;;;;;;;;;;;;;;;10.67;100.00;101192.09;4997950;28;19926;-77
2022/10/14 03:15:49;;;;;;;;;;;;;;;10.70;100.00;101191.25;4994884;28;20486;-79
2022/10/14 03:18:15;;;;;;;;;;;;;;;10.74;100.00;101185.19;5008353;28;19972;-79
2022/10/14 03:20:44;;;;;;;;;;;;;;;10.78;100.00;101190.50;4978883;28;20742;-77
2022/10/14 03:23:10;;;;;;;;;;;;;;;10.77;100.00;101180.00;4986903;28;20542;-77
2022/10/14 03:25:36;;;;;;;;;;;;;;;10.81;100.00;101183.50;5027045;28;19917;-77
2022/10/14 03:28:01;;;;;;;;;;;;;;;10.75;100.00;101186.97;5012833;28;19917;-76
2022/10/14 03:30:27;;;;;;;;;;;;;;;10.90;100.00;101176.63;5008077;28;19913;-76
2022/10/14 03:32:52;;;;;;;;;;;;;;;10.91;100.00;101175.78;5003578;28;19957;-78
2022/10/14 03:35:17;;;;;;;;;;;;;;;11.08;100.00;101175.94;4997109;28;19917;-77
2022/10/14 03:37:42;;;;;;;;;;;;;;;10.87;100.00;101166.09;5007382;28;19924;-76
2022/10/14 03:40:08;;;;;;;;;;;;;;;11.04;100.00;101179.41;5001507;28;19921;-77
2022/10/14 03:42:33;;;;;;;;;;;;;;;10.99;100.00;101178.47;4995742;28;19972;-76
2022/10/14 03:44:59;;;;;;;;;;;;;;;10.92;100.00;101174.03;4990197;28;20285;-79
2022/10/14 03:47:24;;;;;;;;;;;;;;;10.80;100.00;101182.63;4975239;28;20361;-76
2022/10/14 03:49:49;;;;;;;;;;;;;;;10.78;100.00;101180.00;5003673;28;19928;-74
2022/10/14 03:52:15;;;;;;;;;;;;;;;10.73;100.00;101178.19;5007098;28;19929;-77
2022/10/14 03:54:40;;;;;;;;;;;;;;;10.76;100.00;101176.47;5002671;28;20442;-79
2022/10/14 03:57:05;;;;;;;;;;;;;;;10.78;100.00;101179.13;4995130;28;19921;-77
2022/10/14 03:59:31;;;;;;;;;;;;;;;10.72;100.00;101172.06;5010621;28;20097;-77
2022/10/14 04:01:56;;;;;;;;;;;;;;;10.77;100.00;101173.00;4997686;28;19921;-78
2022/10/14 04:04:21;;;;;;;;;;;;;;;10.76;100.00;101163.34;5011447;28;19921;-77
2022/10/14 04:06:47;;;;;;;;;;;;;;;10.66;100.00;101164.09;5009320;28;19964;-76
2022/10/14 04:09:12;;;;;;;;;;;;;;;10.63;100.00;101164.06;4991145;28;19917;-75
2022/10/14 04:11:37;;;;;;;;;;;;;;;10.52;100.00;101163.94;5008571;28;20247;-76
2022/10/14 04:14:03;;;;;;;;;;;;;;;10.50;100.00;101157.78;4981942;28;20005;-76
2022/10/14 04:16:28;;;;;;;;;;;;;;;10.47;100.00;101164.75;5004177;28;19952;-76
2022/10/14 04:18:53;;;;;;;;;;;;;;;10.44;100.00;101165.59;5008038;28;19960;-78
2022/10/14 04:21:18;;;;;;;;;;;;;;;10.35;100.00;101168.09;4999566;28;20285;-78
2022/10/14 04:23:44;;;;;;;;;;;;;;;10.38;100.00;101162.00;4991149;28;19961;-78
2022/10/14 04:26:09;;;;;;;;;;;;;;;10.29;100.00;101157.50;4996752;28;19972;-77
2022/10/14 04:28:35;;;;;;;;;;;;;;;10.25;100.00;101151.31;4991447;28;19920;-78
2022/10/14 04:31:01;;;;;;;;;;;;;;;10.22;100.00;101151.28;4998772;28;19917;-79
2022/10/14 04:33:26;;;;;;;;;;;;;;;10.19;100.00;101153.84;5008901;28;20016;-77
2022/10/14 04:35:58;;;;;;;;;;;;;;;10.23;100.00;101155.69;4992697;28;20360;-76
2022/10/14 04:38:24;;;;;;;;;;;;;;;10.20;100.00;101154.72;4990169;28;20301;-77
2022/10/14 04:40:49;;;;;;;;;;;;;;;10.20;100.00;101159.97;5002667;28;19928;-80
2022/10/14 04:43:14;;;;;;;;;;;;;;;10.20;100.00;101149.50;5004700;28;19922;-78
2022/10/14 04:45:40;;;;;;;;;;;;;;;10.21;100.00;101157.38;5025010;28;19965;-78
2022/10/14 04:48:05;;;;;;;;;;;;;;;10.21;100.00;101153.84;5009629;28;20009;-78
2022/10/14 04:50:30;;;;;;;;;;;;;;;10.31;100.00;101155.81;5001139;28;19922;-79
2022/10/14 04:52:56;;;;;;;;;;;;;;;10.26;100.00;101147.84;5006651;28;19913;-78
2022/10/14 04:55:21;;;;;;;;;;;;;;;10.34;100.00;101159.31;5003781;28;20637;-77
2022/10/14 04:57:46;;;;;;;;;;;;;;;10.34;100.00;101163.69;4984232;28;20016;-78
2022/10/14 05:00:12;;;;;;;;;;;;;;;10.36;100.00;101164.59;5006734;28;23696;-75
2022/10/14 05:02:44;;;;;;;;;;;;;;;10.40;100.00;101162.91;5009493;28;19921;-75
2022/10/14 05:05:09;;;;;;;;;;;;;;;10.42;100.00;101166.41;5021823;28;20020;-77
2022/10/14 05:07:42;;;;;;;;;;;;;;;10.45;100.00;101159.47;5022958;28;20455;-76
2022/10/14 05:10:09;;;;;;;;;;;;;;;10.49;100.00;101166.53;5008147;28;19928;-79
2022/10/14 05:12:34;;;;;;;;;;;;;;;10.56;100.00;101163.13;4998604;28;19917;-77
2022/10/14 05:14:59;;;;;;;;;;;;;;;10.63;100.00;101166.69;4996237;28;20007;-76
2022/10/14 05:17:25;;;;;;;;;;;;;;;10.63;100.00;101163.16;4986192;28;20455;-74
2022/10/14 05:19:50;;;;;;;;;;;;;;;10.60;100.00;101155.28;4983368;28;20393;-78
2022/10/14 05:22:15;;;;;;;;;;;;;;;10.66;100.00;101157.97;4999570;28;19921;-77
2022/10/14 05:24:40;;;;;;;;;;;;;;;10.72;100.00;101155.41;5013544;28;20012;-76
2022/10/14 05:27:06;;;;;;;;;;;;;;;10.77;100.00;101159.00;5021862;28;20230;-77
2022/10/14 05:29:31;;;;;;;;;;;;;;;10.78;100.00;101150.25;5008412;28;19933;-77
2022/10/14 05:31:56;;;;;;;;;;;;;;;10.78;100.00;101152.84;5005154;28;19995;-77
2022/10/14 05:34:22;;;;;;;;;;;;;;;10.83;100.00;101161.66;4990829;28;20384;-77
2022/10/14 05:36:47;;;;;;;;;;;;;;;10.84;100.00;101154.66;5008893;28;19914;-79
2022/10/14 05:39:12;;;;;;;;;;;;;;;10.81;100.00;101160.75;5008140;28;23234;-76
2022/10/14 05:41:38;;;;;;;;;;;;;;;10.92;100.00;101168.78;5004301;28;19925;-80
2022/10/14 05:44:03;;;;;;;;;;;;;;;11.06;100.00;101163.66;5004978;28;20347;-79
2022/10/14 05:46:29;;;;;;;;;;;;;;;10.98;100.00;101174.09;5016394;28;19921;-76
2022/10/14 05:48:55;;;;;;;;;;;;;;;11.03;100.00;101167.13;5004651;28;20576;-78
2022/10/14 05:51:21;;;;;;;;;;;;;;;11.19;100.00;101171.69;4990787;28;20389;-78
2022/10/14 05:53:47;;;;;;;;;;;;;;;11.05;100.00;101165.41;5002914;28;19921;-77
2022/10/14 05:56:12;;;;;;;;;;;;;;;11.12;100.00;101168.97;5013889;28;19921;-76
2022/10/14 05:58:38;;;;;;;;;;;;;;;11.22;100.00;101176.09;5019914;28;19916;-77
2022/10/14 06:01:04;;;;;;;;;;;;;;;11.31;100.00;101167.41;5003428;28;20033;-76
2022/10/14 06:03:29;;;;;;;;;;;;;;;11.39;100.00;101170.97;5018114;28;19913;-75
2022/10/14 06:05:55;;;;;;;;;;;;;;;11.27;100.00;101169.13;4995716;28;21510;-76
2022/10/14 06:08:21;;;;;;;;;;;;;;;12.08;100.00;101173.25;4989028;28;19950;-72
2022/10/14 06:10:46;;;;;;;;;;;;;;;11.80;100.00;101176.56;5008949;28;19921;-71
2022/10/14 06:13:11;;;;;;;;;;;;;;;12.82;100.00;101174.50;5012201;28;19952;-70
2022/10/14 06:15:37;;;;;;;;;;;;;;;13.73;99.45;101179.03;5006085;28;19922;-73
2022/10/14 06:18:02;;;;;;;;;;;;;;;14.19;91.15;101188.63;4989788;28;20001;-73
2022/10/14 06:20:28;;;;;;;;;;;;;;;13.76;92.70;101180.78;4997268;28;19960;-73
2022/10/14 06:22:53;;;;;;;;;;;;;;;15.07;86.84;101189.16;4981101;28;19951;-72
2022/10/14 06:25:19;;;;;;;;;;;;;;;15.57;86.39;101190.59;4985142;28;19917;-72
2022/10/14 06:27:44;;;;;;;;;;;;;;;16.41;79.47;101180.06;4991636;28;19974;-72
2022/10/14 06:30:10;;;;;;;;;;;;;;;15.79;82.36;101179.84;4997653;28;19991;-79
2022/10/14 06:32:35;;;;;;;;;;;;;;;16.53;76.32;101182.59;4993579;28;19964;-73
2022/10/14 06:35:00;;;;;;;;;;;;;;;15.53;83.16;101186.22;5007290;28;19920;-73
2022/10/14 06:37:26;;;;;;;;;;;;;;;15.29;83.90;101181.09;5007485;28;19918;-73
2022/10/14 06:39:51;;;;;;;;;;;;;;;14.35;85.85;101177.16;5005259;28;19991;-76
2022/10/14 06:42:16;;;;;;;;;;;;;;;15.72;78.72;101184.31;4994767;28;19932;-76
2022/10/14 06:44:42;;;;;;;;;;;;;;;14.74;84.81;101183.19;4992284;28;19918;-72
2022/10/14 06:47:07;;;;;;;;;;;;;;;14.61;81.91;101188.50;4991329;28;19922;-73
2022/10/14 06:49:32;;;;;;;;;;;;;;;15.04;80.49;101180.41;4968544;28;20457;-72
2022/10/14 06:51:58;;;;;;;;;;;;;;;16.09;79.03;101185.75;4975716;28;20404;-74
2022/10/14 06:54:23;;;;;;;;;;;;;;;15.32;77.63;101194.31;4973569;28;19918;-74
2022/10/14 06:56:48;;;;;;;;;;;;;;;15.32;79.40;101096.47;4985820;28;19937;-74
2022/10/14 06:59:14;;;;;;;;;;;;;;;16.86;76.43;101183.09;4973558;28;19934;-74
2022/10/14 07:01:39;;;;;;;;;;;;;;;14.41;80.48;101183.28;4984499;28;19922;-73
2022/10/14 07:04:04;;;;;;;;;;;;;;;16.16;78.49;101184.78;4987646;28;19924;-73
2022/10/14 07:06:30;;;;;;;;;;;;;;;14.99;78.93;101185.72;4984865;28;19913;-78
2022/10/14 07:08:55;;;;;;;;;;;;;;;14.75;82.35;101190.22;4982552;28;20014;-72
2022/10/14 07:11:20;;;;;;;;;;;;;;;14.25;83.22;101182.47;4987764;28;19961;-77
2022/10/14 07:13:46;;;;;;;;;;;;;;;13.88;85.26;101187.78;4978386;28;20530;-76
2022/10/14 07:16:11;;;;;;;;;;;;;;;14.03;84.69;101186.91;4969848;28;20267;-75
2022/10/14 07:18:36;;;;;;;;;;;;;;;14.41;83.21;101172.72;4968983;28;20004;-78
2022/10/14 07:21:03;;;;;;;;;;;;;;;14.09;83.52;101173.69;4981018;28;20072;-75
2022/10/14 07:23:28;;;;;;;;;;;;;;;13.98;83.57;101170.19;4987581;28;19922;-76
2022/10/14 07:25:57;;;;;;;;;;;;;;;13.50;85.39;101172.88;4975289;28;20321;-76
2022/10/14 07:28:22;;;;;;;;;;;;;;;13.97;84.07;101176.34;4986141;28;19921;-77
2022/10/14 07:30:58;;;;;;;;;;;;;;;14.05;83.17;101177.25;5001731;28;19922;-77
2022/10/14 07:33:23;;;;;;;;;;;;;;;13.62;84.39;101172.88;4982579;28;19997;-74
2022/10/14 07:35:49;;;;;;;;;;;;;;;13.56;84.72;101172.88;4981225;28;20680;-75
2022/10/14 07:38:14;;;;;;;;;;;;;;;13.87;83.63;101176.38;4982718;28;20388;-74
2022/10/14 07:40:39;;;;;;;;;;;;;;;14.10;82.32;101168.41;4997653;28;20033;-76
2022/10/14 07:43:06;;;;;;;;;;;;;;;14.28;81.86;101171.88;4970540;28;20392;-76
2022/10/14 07:45:34;;;;;;;;;;;;;;;14.49;80.95;101174.47;4996970;28;20648;-80
2022/10/14 07:48:00;;;;;;;;;;;;;;;14.45;80.89;101178.00;4983863;28;19979;-81
2022/10/14 07:50:25;;;;;;;;;;;;;;;14.33;81.47;101176.28;5008456;28;20400;-80
2022/10/14 07:52:50;;;;;;;;;;;;;;;14.45;81.13;101180.63;4986757;28;19921;-80
2022/10/14 07:55:16;;;;;;;;;;;;;;;14.42;80.73;101171.84;5007142;28;20024;-81
2022/10/14 07:57:41;;;;;;;;;;;;;;;14.36;81.05;101186.81;5011076;28;20067;-82
2022/10/14 08:00:07;;;;;;;;;;;;;;;14.10;81.90;101173.69;5007696;28;19984;-82
2022/10/14 08:02:32;;;;;;;;;;;;;;;14.35;81.36;101173.63;5012568;28;19921;-80
2022/10/14 08:04:57;;;;;;;;;;;;;;;14.57;80.76;101169.19;5022014;28;20350;-75
2022/10/14 08:07:24;;;;;;;;;;;;;;;14.57;80.42;101164.78;5002725;28;19921;-75
2022/10/14 08:09:52;;;;;;;;;;;;;;;14.54;81.00;101163.91;5002910;28;20249;-77
2022/10/14 08:12:17;;;;;;;;;;;;;;;14.36;80.83;101162.19;4994792;28;19917;-77
2022/10/14 08:14:43;;;;;;;;;;;;;;;14.47;81.10;101162.13;4992087;28;19967;-76
2022/10/14 08:17:08;;;;;;;;;;;;;;;14.54;80.48;101151.59;5002865;28;19917;-76
2022/10/14 08:19:33;;;;;;;;;;;;;;;14.61;80.73;101165.66;5005883;28;20035;-76
2022/10/14 08:21:59;;;;;;;;;;;;;;;14.85;79.78;101154.06;5000246;28;19968;-76
2022/10/14 08:24:24;;;;;;;;;;;;;;;14.93;79.23;101162.81;5004168;28;19918;-77
2022/10/14 08:26:50;;;;;;;;;;;;;;;14.49;80.07;101152.44;5011127;28;19924;-75
2022/10/14 08:29:16;;;;;;;;;;;;;;;14.67;79.60;101162.09;5010017;28;19929;-75
2022/10/14 08:31:41;;;;;;;;;;;;;;;14.76;79.86;101159.41;4994881;28;19936;-75
2022/10/14 08:34:06;;;;;;;;;;;;;;;14.75;79.98;101158.53;4988669;28;19939;-75
2022/10/14 08:36:32;;;;;;;;;;;;;;;14.91;78.94;101161.06;5005285;28;19917;-77
2022/10/14 08:38:58;;;;;;;;;;;;;;;15.19;78.82;101154.75;5009814;28;20388;-76
2022/10/14 08:41:23;;;;;;;;;;;;;;;15.01;79.04;101156.59;4986886;28;19931;-76
2022/10/14 08:44:04;;;;;;;;;;;;;;;15.30;78.18;101161.72;4992869;28;19922;-76
2022/10/14 08:46:49;;;;;;;;;;;;;;;15.21;78.12;101165.28;5003159;28;19921;-76
2022/10/14 08:49:26;;;;;;;;;;;;;;;15.20;78.14;101163.53;4991315;28;20631;-74
2022/10/14 08:52:01;;;;;;;;;;;;;;;15.19;78.31;101160.03;5005209;28;19955;-75
2022/10/14 08:54:49;;;;;;;;;;;;;;;15.37;78.48;101166.94;5021658;28;19921;-76
2022/10/14 08:57:17;;;;;;;;;;;;;;;15.56;77.91;101167.66;5002569;28;19937;-76
2022/10/14 08:59:43;;;;;;;;;;;;;;;15.37;77.30;101172.22;5008952;28;20012;-76
2022/10/14 09:02:29;;;;;;;;;;;;;;;15.50;77.01;101165.09;5006896;28;19925;-76
2022/10/14 09:04:55;;;;;;;;;;;;;;;15.61;76.72;101171.13;4987029;28;20007;-76
2022/10/14 09:07:21;;;;;;;;;;;;;;;15.92;75.75;101162.97;5008681;28;20357;-79
2022/10/14 09:09:48;;;;;;;;;;;;;;;15.96;75.59;101163.81;5009441;28;19917;-78
2022/10/14 09:12:16;;;;;;;;;;;;;;;15.43;76.64;101167.75;5006580;28;20036;-79
2022/10/14 09:14:43;;;;;;;;;;;;;;;15.80;75.76;101155.13;5007509;28;20742;-79
2022/10/14 09:17:18;;;;;;;;;;;;;;;16.13;74.70;101167.16;5008695;28;19917;-78
2022/10/14 09:19:47;;;;;;;;;;;;;;;16.35;73.98;101158.97;5006958;28;20000;-79
2022/10/14 09:22:13;;;;;;;;;;;;;;;15.91;73.71;101158.56;5006187;28;19918;-79
2022/10/14 09:24:40;;;;;;;;;;;;;;;16.35;73.07;101173.09;4989547;28;19921;-79
2022/10/14 09:27:14;;;;;;;;;;;;;;;16.19;73.07;101167.09;5002502;28;20365;-78
2022/10/14 09:29:42;;;;;;;;;;;;;;;16.52;72.80;101172.88;4989016;28;20516;-79
2022/10/14 09:32:11;;;;;;;;;;;;;;;16.03;73.25;101176.09;4993835;28;20709;-79
2022/10/14 09:34:47;;;;;;;;;;;;;;;15.75;74.20;101168.41;4992128;28;19965;-79
2022/10/14 09:37:19;;;;;;;;;;;;;;;15.97;74.31;101171.75;4991722;28;20377;-76
2022/10/14 09:39:45;;;;;;;;;;;;;;;16.09;73.57;101177.81;5011344;28;19957;-77
2022/10/14 09:42:18;;;;;;;;;;;;;;;16.03;73.28;101182.25;5007919;28;20000;-74
2022/10/14 09:44:44;;;;;;;;;;;;;;;15.83;73.29;101169.22;4993126;28;19925;-74
2022/10/14 09:47:12;;;;;;;;;;;;;;;16.00;73.47;101177.00;5001308;28;19921;-76
2022/10/14 09:49:44;;;;;;;;;;;;;;;16.19;72.95;101175.03;4999062;28;20123;-75
2022/10/14 09:52:20;;;;;;;;;;;;;;;15.72;74.13;101181.66;4998728;28;22969;-75
2022/10/14 09:54:52;;;;;;;;;;;;;;;16.21;72.83;101173.25;5008637;28;20028;-76
2022/10/14 09:57:18;;;;;;;;;;;;;;;15.64;74.02;101172.91;4988287;28;19913;-75
2022/10/14 09:59:49;;;;;;;;;;;;;;;15.73;74.23;101178.16;4985616;28;19979;-76
2022/10/14 10:02:20;;;;;;;;;;;;;;;15.47;74.70;101193.31;5004625;28;19921;-74
2022/10/14 10:04:47;;;;;;;;;;;;;;;15.47;74.77;101191.53;4999249;28;20033;-77
2022/10/14 10:07:21;;;;;;;;;;;;;;;15.60;74.60;101187.91;5007036;28;19924;-75
2022/10/14 10:09:52;;;;;;;;;;;;;;;16.07;73.50;101176.94;5005865;28;19929;-76
2022/10/14 10:12:22;;;;;;;;;;;;;;;16.00;72.56;101178.78;5008460;28;19920;-76
2022/10/14 10:14:54;;;;;;;;;;;;;;;15.66;73.94;101171.09;4992633;28;20464;-75
2022/10/14 10:17:20;;;;;;;;;;;;;;;15.73;73.79;101174.59;4992705;28;19917;-76
2022/10/14 10:19:47;;;;;;;;;;;;;;;15.90;73.03;101167.41;5005012;28;20369;-76
2022/10/14 10:22:18;;;;;;;;;;;;;;;15.80;73.69;101163.06;4989303;28;20248;-74
2022/10/14 10:24:47;;;;;;;;;;;;;;;15.89;73.95;101167.41;5007528;28;19962;-75
2022/10/14 10:27:36;;;;;;;;;;;;;;;16.09;72.81;101161.94;5008572;28;19913;-75
2022/10/14 10:30:13;;;;;;;;;;;;;;;15.59;74.35;101166.75;5004589;28;19928;-76
2022/10/14 10:32:39;;;;;;;;;;;;;;;15.92;73.58;101164.72;5006304;28;19921;-75
2022/10/14 10:35:19;;;;;;;;;;;;;;;15.82;73.20;101163.94;4990385;28;19976;-76
2022/10/14 10:37:49;;;;;;;;;;;;;;;15.63;74.24;101169.34;4986635;28;20079;-75
2022/10/14 10:40:26;;;;;;;;;;;;;;;16.08;72.68;101154.84;4991013;28;19921;-75
2022/10/14 10:42:51;;;;;;;;;;;;;;;16.49;71.74;101161.47;4986932;28;19928;-75
2022/10/14 10:45:36;;;;;;;;;;;;;;;15.83;72.38;101148.06;4971925;28;19921;-76
2022/10/14 10:48:09;;;;;;;;;;;;;;;16.28;72.27;101152.00;4969741;28;19928;-76
2022/10/14 10:50:43;;;;;;;;;;;;;;;16.01;72.55;101141.72;4981782;28;20053;-75
2022/10/14 10:53:18;;;;;;;;;;;;;;;16.31;71.98;101150.16;4984127;28;19921;-76
2022/10/14 10:56:05;;;;;;;;;;;;;;;16.64;71.05;101142.69;4986845;28;20337;-75
2022/10/14 10:58:39;;;;;;;;;;;;;;;16.08;71.86;101141.63;4976916;28;19937;-75
2022/10/14 11:01:17;;;;;;;;;;;;;;;16.15;72.36;101140.66;4987460;28;19952;-75
2022/10/14 11:03:49;;;;;;;;;;;;;;;16.01;72.83;101136.41;4985062;28;19921;-76
2022/10/14 11:12:01;;;;;;;;;;;;;;;15.88;72.91;101144.50;4970532;28;20393;-75
2022/10/14 11:12:14;;;;;;;;;;;;;;;16.49;71.20;101121.72;4987586;28;19924;-76
2022/10/14 11:14:39;;;;;;;;;;;;;;;16.34;71.59;101114.81;4972339;28;20413;-75
2022/10/14 11:17:38;;;;;;;;;;;;;;;16.49;71.22;101116.44;4987487;28;19917;-75
2022/10/14 11:20:09;;;;;;;;;;;;;;;16.42;70.81;101108.53;4973671;28;19926;-75
2022/10/14 11:22:53;;;;;;;;;;;;;;;16.44;71.46;101104.09;4982606;28;20634;-76
2022/10/14 11:25:20;;;;;;;;;;;;;;;16.65;70.91;101099.41;4984092;28;20005;-76
2022/10/14 11:27:51;;;;;;;;;;;;;;;16.43;70.71;101102.34;4977619;28;19965;-74
2022/10/14 11:30:38;;;;;;;;;;;;;;;16.45;71.92;101099.69;4985644;28;19952;-74
2022/10/14 11:33:22;;;;;;;;;;;;;;;16.35;71.41;101096.28;4974729;28;19993;-76
2022/10/14 11:35:57;;;;;;;;;;;;;;;16.41;71.23;101098.84;4990823;28;19917;-76
2022/10/14 11:38:42;;;;;;;;;;;;;;;16.50;70.60;101094.31;4986746;28;20433;-76
2022/10/14 11:41:20;;;;;;;;;;;;;;;16.56;70.93;101086.31;4986701;28;20289;-77
2022/10/14 11:43:56;;;;;;;;;;;;;;;16.29;71.46;101088.41;4975003;28;19922;-75
2022/10/14 11:46:25;;;;;;;;;;;;;;;16.54;70.74;101080.13;4974927;28;19925;-75
2022/10/14 11:48:53;;;;;;;;;;;;;;;16.32;71.17;101085.72;4999291;28;20395;-75
2022/10/14 11:51:22;;;;;;;;;;;;;;;16.61;70.56;101076.50;4982437;28;19958;-75
2022/10/14 11:53:54;;;;;;;;;;;;;;;16.49;71.07;101077.56;5000664;28;19913;-74
2022/10/14 11:56:35;;;;;;;;;;;;;;;16.67;70.16;101069.34;4999409;28;19924;-75
2022/10/14 11:59:18;;;;;;;;;;;;;;;16.51;70.58;101064.28;4986182;28;20019;-74
2022/10/14 12:01:50;;;;;;;;;;;;;;;16.83;69.80;101074.44;4999849;28;20420;-76
2022/10/14 12:04:26;;;;;;;;;;;;;;;16.41;70.43;101067.06;4988686;28;19948;-76
2022/10/14 12:06:55;;;;;;;;;;;;;;;16.42;70.15;101068.81;4985736;28;19965;-74
2022/10/14 12:09:35;;;;;;;;;;;;;;;16.55;70.65;101064.22;4980295;28;19918;-75
2022/10/14 12:12:04;;;;;;;;;;;;;;;16.35;70.27;101071.56;4981108;28;20258;-75
2022/10/14 12:14:34;;;;;;;;;;;;;;;16.42;69.76;101060.88;5007640;28;20262;-76
2022/10/14 12:17:03;;;;;;;;;;;;;;;16.16;70.50;101063.00;4979307;28;19929;-76
2022/10/14 12:19:32;;;;;;;;;;;;;;;16.41;70.08;101056.47;4978057;28;19923;-76
2022/10/14 12:22:16;;;;;;;;;;;;;;;16.42;70.24;101036.16;5004945;28;20027;-75
2022/10/14 12:25:01;;;;;;;;;;;;;;;16.54;69.95;101045.69;4987393;28;19922;-76
2022/10/14 12:27:28;;;;;;;;;;;;;;;16.65;69.92;101057.03;5000776;28;19917;-76
2022/10/14 12:29:58;;;;;;;;;;;;;;;16.62;69.47;101054.41;5005350;28;19913;-76
2022/10/14 12:32:25;;;;;;;;;;;;;;;16.31;69.60;101051.31;5003613;28;19968;-74
2022/10/14 12:34:55;;;;;;;;;;;;;;;16.41;69.58;101045.88;4983953;28;20020;-75
2022/10/14 12:37:21;;;;;;;;;;;;;;;16.42;69.74;101044.97;5002257;28;19917;-75
2022/10/14 12:39:47;;;;;;;;;;;;;;;16.60;69.19;101046.50;5009593;28;19917;-76
2022/10/14 12:42:13;;;;;;;;;;;;;;;16.61;69.41;101036.75;4999484;28;19932;-76